Bavaria

Go HERE for most recent data if this page is not up to date.

Jump to table bottom
Date Time Temp F RH % AVG Wind Max Wind Wind Dir 24 Snow Depth
*03/25/19 02 19.9 89 0 0 N - 0 1.6 80.8
*03/25/19 01 20.7 90 0 0 N - 0 1.7 81.0
*03/25/19 00 20.8 90 0 0 N - 0 1.7 81.1
*03/24/19 23 22.2 91 0 0 N - 0 1.8 81.0
*03/24/19 22 23.8 91 0 0 N - 0 1.8 81.0
*03/24/19 21 24.5 91 0 0 N - 0 1.8 -30.1
*03/24/19 20 24.8 90 0 0 N - 0 1.7 151.3
*03/24/19 19 26.5 87 0 0 N - 0 1.6 151.3
*03/24/19 18 27.9 80 0 0 N - 0 1.4 151.3
*03/24/19 17 26.3 83 0 0 N - 0 1.3 151.3
*03/24/19 16 26.9 82 0 0 N - 0 0.4 151.3
*03/24/19 15 33.0 66 0 0 N - 0 -0.2 151.3
*03/24/19 14 33.8 59 0 0 N - 0 -0.1 78.2
*03/24/19 13 31.4 68 0 0 N - 0 -0.0 78.1
*03/24/19 12 32.2 60 0 0 N - 0 -0.3 78.4
*03/24/19 11 32.8 58 0 0 N - 0 0.0 78.7
*03/24/19 10 25.5 75 0 0 N - 0 0.0 78.8
*03/24/19 09 24.2 73 0 0 N - 0 0.1 78.9
*03/24/19 08 23.8 70 0 0 N - 0 0.1 78.9
*03/24/19 07 23.4 75 0 0 N - 0 0.2 79.0
*03/24/19 06 23.1 72 0 0 N - 0 0.2 78.9
*03/24/19 05 22.4 82 0 0 N - 0 0.2 78.9
*03/24/19 04 21.1 82 0 0 N - 0 0.1 78.9
*03/24/19 03 22.4 78 0 0 N - 0 0.2 78.9
*03/24/19 02 22.1 68 0 0 N - 0 0.2 79.0
*03/24/19 01 24.2 73 0 0 N - 0 0.2 78.9
*03/24/19 00 23.8 73 0 0 N - 0 0.2 78.8
.